Time;durP1;ratioP1;P1;durP2;ratioP2;P2;SDS_P1;SDS_P2;PMS_P1;PMS_P2;Temp;Humidity;BMP_temperature;BMP_pressure;BME280_temperature;BME280_humidity;BME280_pressure;Samples;Min_cycle;Max_cycle;Signal;HPM_P1;HPM_P2
2022/05/19 00:01:16;;;;;;;4.37;4.00;;;20.50;97.30;;;;;;5050908;28;20218;-76
2022/05/19 00:03:42;;;;;;;4.20;3.90;;;20.50;97.00;;;;;;5050991;28;20212;-77
2022/05/19 00:06:12;;;;;;;5.03;3.93;;;20.50;97.10;;;;;;5050276;28;20224;-76
2022/05/19 00:08:39;;;;;;;5.27;4.20;;;20.40;97.20;;;;;;5050934;28;20211;-76
2022/05/19 00:11:21;;;;;;;5.33;4.30;;;20.40;96.90;;;;;;5050142;28;20313;-76
2022/05/19 00:13:47;;;;;;;4.33;3.80;;;20.40;96.80;;;;;;5050893;28;20221;-76
2022/05/19 00:16:14;;;;;;;4.63;4.27;;;20.30;96.80;;;;;;5050789;28;20254;-74
2022/05/19 00:18:41;;;;;;;7.30;4.37;;;20.30;96.90;;;;;;5050294;28;20434;-75
2022/05/19 00:21:07;;;;;;;4.10;3.80;;;20.30;97.10;;;;;;5050012;28;20254;-75
2022/05/19 00:23:35;;;;;;;4.77;4.27;;;20.30;97.10;;;;;;5050093;28;20257;-74
2022/05/19 00:26:04;;;;;;;4.10;3.80;;;20.20;97.10;;;;;;5049637;28;20207;-75
2022/05/19 00:28:31;;;;;;;4.57;4.20;;;20.20;97.10;;;;;;5050261;28;20212;-74
2022/05/19 00:30:58;;;;;;;5.10;4.70;;;20.10;97.20;;;;;;5050276;28;20201;-75
2022/05/19 00:33:24;;;;;;;4.30;4.00;;;20.10;97.20;;;;;;5049689;28;20212;-74
2022/05/19 00:35:51;;;;;;;4.47;4.17;;;20.10;97.60;;;;;;5050019;28;20254;-74
2022/05/19 00:38:18;;;;;;;5.03;4.23;;;20.00;97.60;;;;;;5050073;28;20208;-74
2022/05/19 00:40:51;;;;;;;5.17;4.63;;;20.00;97.80;;;;;;5049465;28;20780;-74
2022/05/19 00:43:28;;;;;;;5.40;4.20;;;20.00;97.90;;;;;;5049983;28;20242;-74
2022/05/19 00:45:59;;;;;;;8.93;4.57;;;19.90;97.60;;;;;;5048255;28;20262;-74
2022/05/19 00:48:36;;;;;;;4.90;4.40;;;19.90;98.00;;;;;;5049664;28;20200;-74
2022/05/19 00:51:09;;;;;;;4.50;4.20;;;19.90;98.00;;;;;;5049869;28;20200;-74
2022/05/19 00:53:40;;;;;;;6.13;4.83;;;19.90;97.90;;;;;;5049453;28;20192;-74
2022/05/19 00:56:14;;;;;;;6.00;4.70;;;19.90;98.00;;;;;;5049585;28;20196;-74
2022/05/19 00:58:47;;;;;;;4.77;4.30;;;19.80;97.90;;;;;;5048998;28;20222;-74
2022/05/19 01:01:15;;;;;;;5.17;4.00;;;19.70;98.30;;;;;;5049282;28;20552;-74
2022/05/19 01:03:47;;;;;;;4.87;4.47;;;19.70;98.30;;;;;;5049380;28;20294;-74
2022/05/19 01:06:18;;;;;;;4.73;4.33;;;19.80;98.20;;;;;;5049425;28;20235;-75
2022/05/19 01:08:50;;;;;;;4.73;4.43;;;19.80;98.00;;;;;;5048668;28;20192;-75
2022/05/19 01:11:18;;;;;;;4.70;4.30;;;19.70;98.00;;;;;;5048657;28;20829;-74
2022/05/19 01:13:46;;;;;;;4.63;4.23;;;19.70;97.90;;;;;;5049085;28;20207;-74
2022/05/19 01:16:13;;;;;;;5.57;4.60;;;19.70;98.00;;;;;;5049278;28;20212;-74
2022/05/19 01:18:42;;;;;;;4.87;4.40;;;19.70;98.00;;;;;;5037047;28;20242;-74
2022/05/19 01:21:10;;;;;;;5.10;4.80;;;19.70;98.10;;;;;;5049111;28;20247;-75
2022/05/19 01:23:45;;;;;;;5.00;4.60;;;19.60;98.20;;;;;;5049115;28;20208;-77
2022/05/19 01:26:22;;;;;;;7.23;4.57;;;19.60;98.70;;;;;;5048668;28;20973;-77
2022/05/19 01:28:50;;;;;;;7.00;4.47;;;19.60;98.30;;;;;;5049231;28;20192;-74
2022/05/19 01:31:31;;;;;;;5.27;4.47;;;19.60;98.40;;;;;;5049165;28;20200;-74
2022/05/19 01:33:58;;;;;;;6.30;4.37;;;19.60;98.40;;;;;;5048611;28;20291;-75
2022/05/19 01:36:25;;;;;;;4.50;4.20;;;19.60;98.40;;;;;;5048803;28;20207;-74
2022/05/19 01:38:59;;;;;;;5.07;4.67;;;19.40;98.30;;;;;;5048826;28;20211;-74
2022/05/19 01:41:33;;;;;;;5.53;4.97;;;19.30;98.70;;;;;;5048129;28;20192;-73
2022/05/19 01:44:13;;;;;;;4.60;4.30;;;19.30;99.10;;;;;;5048706;28;20188;-73
2022/05/19 01:46:40;;;;;;;5.23;4.50;;;19.30;99.10;;;;;;5048194;28;20612;-73
2022/05/19 01:49:13;;;;;;;5.70;4.53;;;19.30;99.00;;;;;;5049013;28;20208;-73
2022/05/19 01:51:46;;;;;;;5.60;4.70;;;19.30;98.80;;;;;;5048666;28;20199;-74
2022/05/19 01:54:19;;;;;;;5.53;4.90;;;19.30;98.90;;;;;;5048167;28;20693;-73
2022/05/19 01:56:54;;;;;;;4.80;4.40;;;19.30;99.00;;;;;;5048172;28;20196;-73
2022/05/19 01:59:28;;;;;;;7.10;4.80;;;19.30;98.80;;;;;;5048470;28;20277;-73
2022/05/19 02:02:01;;;;;;;5.20;4.80;;;19.20;98.60;;;;;;5048630;28;20569;-73
2022/05/19 02:04:37;;;;;;;5.27;4.77;;;19.30;98.80;;;;;;5035147;28;20208;-73
2022/05/19 02:07:08;;;;;;;5.43;4.73;;;19.30;99.00;;;;;;5028316;28;20228;-73
2022/05/19 02:09:40;;;;;;;4.70;4.33;;;19.20;99.10;;;;;;5040463;28;20305;-73
2022/05/19 02:12:08;;;;;;;5.23;4.70;;;19.10;99.10;;;;;;5048211;28;20248;-73
2022/05/19 02:14:40;;;;;;;5.03;4.63;;;19.10;99.20;;;;;;5047812;28;20200;-73
2022/05/19 02:17:10;;;;;;;4.93;4.53;;;19.10;99.40;;;;;;5048258;28;20262;-73
2022/05/19 02:19:41;;;;;;;6.47;4.43;;;19.10;99.30;;;;;;5048043;28;20681;-73
2022/05/19 02:22:11;;;;;;;5.53;5.03;;;19.00;99.10;;;;;;5048220;28;20196;-73
2022/05/19 02:24:44;;;;;;;4.90;4.60;;;19.00;99.10;;;;;;5047384;28;20201;-73
2022/05/19 02:27:31;;;;;;;6.00;4.43;;;19.00;99.10;;;;;;5047827;28;20195;-74
2022/05/19 02:30:00;;;;;;;5.83;4.40;;;18.90;99.00;;;;;;5048031;28;20219;-73
2022/05/19 02:32:27;;;;;;;5.33;4.53;;;18.90;99.10;;;;;;5047801;28;20208;-74
2022/05/19 02:34:53;;;;;;;4.90;4.57;;;18.90;99.10;;;;;;5047473;28;20258;-74
2022/05/19 02:37:20;;;;;;;4.40;4.10;;;18.80;98.90;;;;;;5047905;28;20204;-74
2022/05/19 02:39:47;;;;;;;5.20;3.97;;;18.80;99.00;;;;;;5047490;28;20228;-74
2022/05/19 02:42:14;;;;;;;5.40;4.93;;;18.80;99.00;;;;;;5047720;28;20208;-74
2022/05/19 02:44:40;;;;;;;5.23;4.70;;;18.80;99.10;;;;;;5047622;28;20200;-74
2022/05/19 02:47:08;;;;;;;4.67;4.27;;;18.80;99.20;;;;;;5047513;28;20371;-73
2022/05/19 02:49:35;;;;;;;5.50;5.00;;;18.70;99.20;;;;;;5047606;28;20211;-73
2022/05/19 02:52:02;;;;;;;4.80;4.40;;;18.70;99.30;;;;;;5047479;28;20273;-74
2022/05/19 02:54:28;;;;;;;5.87;4.43;;;18.60;99.30;;;;;;5047565;28;20204;-76
2022/05/19 02:56:55;;;;;;;5.47;4.10;;;18.60;99.30;;;;;;5047631;28;20265;-76
2022/05/19 02:59:22;;;;;;;4.70;4.30;;;18.60;99.30;;;;;;5047067;28;20226;-76
2022/05/19 03:01:48;;;;;;;9.13;4.00;;;18.60;99.20;;;;;;5047850;28;20265;-74
2022/05/19 03:04:16;;;;;;;4.63;4.33;;;18.60;99.30;;;;;;5047540;28;20204;-73
2022/05/19 03:06:43;;;;;;;4.70;4.23;;;18.60;99.40;;;;;;5047358;28;20718;-73
2022/05/19 03:09:10;;;;;;;4.53;4.27;;;18.60;99.20;;;;;;5049288;28;20208;-74
2022/05/19 03:11:36;;;;;;;4.97;4.40;;;18.60;99.20;;;;;;5053550;28;20646;-72
2022/05/19 03:14:03;;;;;;;4.73;4.20;;;18.60;99.30;;;;;;5053995;28;20254;-73
2022/05/19 03:16:30;;;;;;;4.90;4.50;;;18.50;99.30;;;;;;5051863;28;20204;-72
2022/05/19 03:18:57;;;;;;;4.83;4.43;;;18.50;99.30;;;;;;5051857;28;20212;-73
2022/05/19 03:21:25;;;;;;;5.40;4.07;;;18.50;99.10;;;;;;5051612;28;20289;-73
2022/05/19 03:23:52;;;;;;;5.80;4.37;;;18.50;99.40;;;;;;5051698;28;20208;-73
2022/05/19 03:26:18;;;;;;;4.53;4.13;;;18.50;99.30;;;;;;5051308;28;20218;-73
2022/05/19 03:28:45;;;;;;;5.00;4.47;;;18.50;99.30;;;;;;5051008;28;20959;-73
2022/05/19 03:31:12;;;;;;;4.63;4.20;;;18.50;99.10;;;;;;5052180;28;20216;-71
2022/05/19 03:33:39;;;;;;;4.30;3.90;;;18.40;99.30;;;;;;5051829;28;20211;-72
2022/05/19 03:36:09;;;;;;;5.20;4.67;;;18.40;99.40;;;;;;5051828;28;20788;-71
2022/05/19 03:38:37;;;;;;;4.87;4.17;;;18.40;99.50;;;;;;5051721;28;20208;-73
2022/05/19 03:41:06;;;;;;;6.13;4.37;;;18.40;99.50;;;;;;5051427;28;20228;-73
2022/05/19 03:43:33;;;;;;;4.97;4.53;;;18.40;99.40;;;;;;5051859;28;20268;-73
2022/05/19 03:46:01;;;;;;;4.70;4.13;;;18.40;99.50;;;;;;5051738;28;20270;-72
2022/05/19 03:48:32;;;;;;;6.10;4.17;;;18.30;99.50;;;;;;5051570;28;20215;-72
2022/05/19 03:50:59;;;;;;;4.30;3.90;;;18.30;99.70;;;;;;5052144;28;20200;-73
2022/05/19 03:53:26;;;;;;;4.30;4.00;;;18.30;99.40;;;;;;5051626;28;20208;-73
2022/05/19 03:55:56;;;;;;;4.73;4.30;;;18.30;99.50;;;;;;5047817;28;20204;-73
2022/05/19 03:58:22;;;;;;;5.17;4.70;;;18.30;99.50;;;;;;5036758;28;20195;-73
2022/05/19 04:00:49;;;;;;;5.50;4.17;;;18.30;99.60;;;;;;5052658;28;20924;-72
2022/05/19 04:03:16;;;;;;;4.77;4.30;;;18.30;99.70;;;;;;5052364;28;20200;-72
2022/05/19 04:05:43;;;;;;;4.53;4.13;;;18.30;99.70;;;;;;5052746;28;20228;-72
2022/05/19 04:08:10;;;;;;;5.93;4.23;;;18.30;99.60;;;;;;5053183;28;20211;-72
2022/05/19 04:10:37;;;;;;;4.90;4.50;;;18.30;99.70;;;;;;5051839;28;20278;-73
2022/05/19 04:13:06;;;;;;;4.50;4.10;;;18.30;99.70;;;;;;5052820;28;20207;-73
2022/05/19 04:15:32;;;;;;;4.50;4.00;;;18.30;99.60;;;;;;5052475;28;20228;-73
2022/05/19 04:17:59;;;;;;;4.63;4.23;;;18.30;99.50;;;;;;5052819;28;20196;-73
2022/05/19 04:20:29;;;;;;;4.63;4.33;;;18.30;99.50;;;;;;5050988;28;20220;-73
2022/05/19 04:22:56;;;;;;;5.07;4.67;;;18.30;99.50;;;;;;5049345;28;20211;-73
2022/05/19 04:25:23;;;;;;;4.27;3.87;;;18.30;99.50;;;;;;5049001;28;20200;-73
2022/05/19 04:27:50;;;;;;;7.30;4.30;;;18.20;99.30;;;;;;5049445;28;20275;-73
2022/05/19 04:30:18;;;;;;;4.83;4.27;;;18.20;99.40;;;;;;5049260;28;20216;-73
2022/05/19 04:32:45;;;;;;;4.57;4.27;;;18.20;99.40;;;;;;5048199;28;20756;-72
2022/05/19 04:35:13;;;;;;;4.90;4.40;;;18.30;99.60;;;;;;5048488;28;20329;-73
2022/05/19 04:37:39;;;;;;;4.97;4.00;;;18.30;99.50;;;;;;5048775;28;20192;-73
2022/05/19 04:40:07;;;;;;;4.23;3.83;;;18.30;99.30;;;;;;5048585;28;20200;-73
2022/05/19 04:42:36;;;;;;;5.37;4.37;;;18.30;99.40;;;;;;5048830;28;20218;-73
2022/05/19 04:45:03;;;;;;;5.83;4.00;;;18.30;99.30;;;;;;5048174;28;20201;-73
2022/05/19 04:47:31;;;;;;;4.90;4.20;;;18.30;99.20;;;;;;5048766;28;20254;-71
2022/05/19 04:49:57;;;;;;;4.43;4.00;;;18.40;99.40;;;;;;5049018;28;20192;-72
2022/05/19 04:52:24;;;;;;;4.33;4.03;;;18.30;99.30;;;;;;5048345;28;20208;-73
2022/05/19 04:54:51;;;;;;;4.20;3.90;;;18.30;99.50;;;;;;5048778;28;20196;-73
2022/05/19 04:57:17;;;;;;;4.27;3.90;;;18.30;99.30;;;;;;5046062;28;20204;-73
2022/05/19 04:59:44;;;;;;;4.57;4.13;;;18.40;99.40;;;;;;5048796;28;20200;-73
2022/05/19 05:02:12;;;;;;;4.13;3.83;;;18.40;99.50;;;;;;5048368;28;20641;-73
2022/05/19 05:04:40;;;;;;;3.70;3.40;;;18.40;99.60;;;;;;5045844;28;20205;-73
2022/05/19 05:07:07;;;;;;;4.20;3.80;;;18.40;99.20;;;;;;5047853;28;20216;-72
2022/05/19 05:09:34;;;;;;;4.43;4.03;;;18.40;99.30;;;;;;5048166;28;20232;-73
2022/05/19 05:12:02;;;;;;;3.93;3.53;;;18.40;99.40;;;;;;5048467;28;20192;-73
2022/05/19 05:14:29;;;;;;;5.23;3.73;;;18.50;99.50;;;;;;5048006;28;20234;-73
2022/05/19 05:16:56;;;;;;;5.53;3.63;;;18.50;99.50;;;;;;5048472;28;20204;-73
2022/05/19 05:19:24;;;;;;;3.87;3.57;;;18.60;99.50;;;;;;5047908;28;20694;-73
2022/05/19 05:21:57;;;;;;;4.07;3.77;;;18.60;99.30;;;;;;5048212;28;20259;-75
2022/05/19 05:24:24;;;;;;;4.23;3.90;;;18.60;99.50;;;;;;5047649;28;20265;-74
2022/05/19 05:26:50;;;;;;;5.27;3.47;;;18.60;99.40;;;;;;5048007;28;20230;-74
2022/05/19 05:29:17;;;;;;;5.13;3.83;;;18.70;99.50;;;;;;5048093;28;20223;-73
2022/05/19 05:31:44;;;;;;;4.27;3.90;;;18.70;99.60;;;;;;5047612;28;20282;-73
2022/05/19 05:34:11;;;;;;;3.80;3.40;;;18.70;99.50;;;;;;5047553;28;20209;-74
2022/05/19 05:36:37;;;;;;;3.60;3.30;;;18.80;99.50;;;;;;5047882;28;20668;-74
2022/05/19 05:39:05;;;;;;;4.73;4.03;;;18.80;99.50;;;;;;5047658;28;20946;-73
2022/05/19 05:41:32;;;;;;;3.80;3.43;;;18.80;99.40;;;;;;5047228;28;20232;-73
2022/05/19 05:43:59;;;;;;;4.10;3.80;;;18.90;99.50;;;;;;5047440;28;20207;-74
2022/05/19 05:46:25;;;;;;;4.20;3.50;;;18.90;99.60;;;;;;5047290;28;20674;-73
2022/05/19 05:48:52;;;;;;;4.43;3.63;;;18.90;99.80;;;;;;5047315;28;20212;-71
2022/05/19 05:51:19;;;;;;;3.67;3.37;;;18.90;99.80;;;;;;5044895;28;20292;-71
2022/05/19 05:53:47;;;;;;;3.80;3.50;;;18.90;99.90;;;;;;5047095;28;20684;-71
2022/05/19 05:56:17;;;;;;;6.80;3.30;;;19.00;99.60;;;;;;5046777;28;20208;-72
2022/05/19 05:58:44;;;;;;;3.47;3.10;;;19.00;99.90;;;;;;5047235;28;20200;-74
2022/05/19 06:01:13;;;;;;;6.13;3.80;;;19.00;99.70;;;;;;5045368;28;20228;-73
2022/05/19 06:03:40;;;;;;;5.67;3.80;;;19.10;99.80;;;;;;5044909;28;20208;-74
2022/05/19 06:06:06;;;;;;;9.20;4.10;;;19.10;99.80;;;;;;5047132;28;20273;-74
2022/05/19 06:08:34;;;;;;;11.47;4.00;;;19.10;99.90;;;;;;5047084;28;20209;-71
2022/05/19 06:11:01;;;;;;;4.30;3.90;;;19.10;99.90;;;;;;5046143;28;20701;-71
2022/05/19 06:13:30;;;;;;;4.37;3.60;;;19.10;99.90;;;;;;5045940;28;21090;-71
2022/05/19 06:15:56;;;;;;;4.00;3.70;;;19.10;99.90;;;;;;5046436;28;20254;-72
2022/05/19 06:18:25;;;;;;;7.50;3.70;;;19.20;99.90;;;;;;5047193;28;20200;-72
2022/05/19 06:20:52;;;;;;;4.53;3.70;;;19.20;99.90;;;;;;5046886;28;20228;-72
2022/05/19 06:23:19;;;;;;;5.83;3.60;;;19.20;99.90;;;;;;5043900;28;20650;-72
2022/05/19 06:25:46;;;;;;;4.10;3.70;;;19.20;99.90;;;;;;5046381;28;20200;-72
2022/05/19 06:28:14;;;;;;;5.83;3.63;;;19.30;99.90;;;;;;5046923;28;20262;-71
2022/05/19 06:30:43;;;;;;;4.17;3.77;;;19.30;99.90;;;;;;5047123;28;20205;-72
2022/05/19 06:33:10;;;;;;;3.90;3.67;;;19.30;99.90;;;;;;5047145;28;20726;-72
2022/05/19 06:35:38;;;;;;;4.03;3.70;;;19.30;99.90;;;;;;5047847;28;20262;-72
2022/05/19 06:38:06;;;;;;;7.20;4.20;;;19.40;99.90;;;;;;5047761;28;20195;-72
2022/05/19 06:40:34;;;;;;;4.80;3.63;;;19.40;99.90;;;;;;5047353;28;20204;-72
2022/05/19 06:43:01;;;;;;;4.27;3.97;;;19.40;99.90;;;;;;5047480;28;20254;-72
2022/05/19 06:45:30;;;;;;;4.00;3.70;;;19.50;99.90;;;;;;5045891;28;20619;-72
2022/05/19 06:47:58;;;;;;;4.50;4.00;;;19.50;99.90;;;;;;5047176;28;20207;-72
2022/05/19 06:50:26;;;;;;;4.13;3.83;;;19.50;99.90;;;;;;5047193;28;20254;-72
2022/05/19 06:52:55;;;;;;;3.67;3.40;;;19.60;99.90;;;;;;5047038;28;20212;-72
2022/05/19 06:55:23;;;;;;;4.17;3.80;;;19.60;99.90;;;;;;5046367;28;20273;-73
2022/05/19 06:57:50;;;;;;;5.50;3.80;;;19.70;99.90;;;;;;5047591;28;20212;-73
2022/05/19 07:00:20;;;;;;;4.50;4.03;;;19.70;99.90;;;;;;5047216;28;20731;-72
2022/05/19 07:02:48;;;;;;;3.70;3.40;;;19.70;99.90;;;;;;5027508;28;20266;-72
2022/05/19 07:05:18;;;;;;;5.97;3.80;;;19.70;99.90;;;;;;5027268;28;21068;-72
2022/05/19 07:07:46;;;;;;;4.20;3.70;;;19.80;99.90;;;;;;5043349;28;20246;-72
2022/05/19 07:10:14;;;;;;;3.93;3.63;;;19.80;99.90;;;;;;5046564;28;20327;-72
2022/05/19 07:12:43;;;;;;;4.17;3.77;;;19.90;99.90;;;;;;5047288;28;20208;-72
2022/05/19 07:15:11;;;;;;;4.73;3.43;;;19.90;99.90;;;;;;5046909;28;20235;-73
2022/05/19 07:17:38;;;;;;;4.37;3.70;;;20.00;99.90;;;;;;5046880;28;20208;-73
2022/05/19 07:22:51;;;;;;;5.00;4.07;;;20.00;99.90;;;;;;5046882;28;20269;-73
2022/05/19 07:25:19;;;;;;;4.10;3.70;;;20.10;99.90;;;;;;5046719;28;20249;-72
2022/05/19 07:27:46;;;;;;;3.57;3.37;;;20.10;99.90;;;;;;5047213;28;20215;-72
2022/05/19 07:30:16;;;;;;;3.93;3.63;;;20.20;99.90;;;;;;5047239;28;20212;-73
2022/05/19 07:32:43;;;;;;;4.13;3.60;;;20.20;99.90;;;;;;5046511;28;21140;-73
2022/05/19 07:35:14;;;;;;;4.10;3.30;;;20.20;99.90;;;;;;5046795;28;20214;-73
2022/05/19 07:37:41;;;;;;;3.97;3.33;;;20.30;99.90;;;;;;5046717;28;20257;-73
2022/05/19 07:40:11;;;;;;;3.53;3.23;;;20.30;99.90;;;;;;5046772;28;20208;-73
2022/05/19 07:42:37;;;;;;;4.67;3.50;;;20.30;99.90;;;;;;5044804;28;20891;-73
2022/05/19 07:45:05;;;;;;;3.57;3.27;;;20.40;99.90;;;;;;5046958;28;20197;-73
2022/05/19 07:47:32;;;;;;;3.77;3.40;;;20.40;99.90;;;;;;5046841;28;20204;-73
2022/05/19 07:49:58;;;;;;;3.40;3.10;;;20.50;99.90;;;;;;5046897;28;20250;-74
2022/05/19 07:52:26;;;;;;;3.13;2.83;;;20.50;99.90;;;;;;5046537;28;20258;-74
2022/05/19 07:54:54;;;;;;;3.60;3.30;;;20.50;99.90;;;;;;5046303;28;20204;-74
2022/05/19 07:57:22;;;;;;;3.30;3.10;;;20.50;99.90;;;;;;5050372;28;20246;-74
2022/05/19 07:59:49;;;;;;;8.87;3.60;;;20.60;99.90;;;;;;5050554;28;20211;-74
2022/05/19 08:02:16;;;;;;;9.47;3.63;;;20.60;99.90;;;;;;5050683;28;20301;-74
2022/05/19 08:04:43;;;;;;;7.07;3.57;;;20.70;99.90;;;;;;5050526;28;20258;-74
2022/05/19 08:07:09;;;;;;;6.27;3.40;;;20.70;99.90;;;;;;5049976;28;20231;-74
2022/05/19 08:17:51;;;;;;;5.87;3.43;;;20.90;99.90;;;;;;5042243;28;20253;-73
2022/05/19 08:20:19;;;;;;;4.73;3.30;;;21.00;99.90;;;;;;5050220;28;20200;-73
2022/05/19 08:22:45;;;;;;;8.43;3.30;;;21.00;99.90;;;;;;5049715;28;20230;-74
2022/05/19 08:25:13;;;;;;;9.53;3.50;;;21.10;99.90;;;;;;5049839;28;20215;-73
2022/05/19 08:27:44;;;;;;;5.53;2.97;;;21.20;99.90;;;;;;5050244;28;20208;-74
2022/05/19 08:30:12;;;;;;;3.40;3.10;;;21.20;99.90;;;;;;5050169;28;20209;-74
2022/05/19 08:32:39;;;;;;;3.07;2.87;;;21.30;99.90;;;;;;5049604;28;20200;-74
2022/05/19 08:35:08;;;;;;;7.00;3.80;;;21.30;99.90;;;;;;5050254;28;20204;-74
2022/05/19 08:37:34;;;;;;;3.83;3.30;;;21.40;99.90;;;;;;5049475;28;20212;-74
2022/05/19 08:40:01;;;;;;;4.50;3.00;;;21.50;99.90;;;;;;5050316;28;20215;-77
2022/05/19 08:42:29;;;;;;;4.05;2.97;;;21.50;99.90;;;;;;5050054;28;20228;-75
2022/05/19 08:45:02;;;;;;;7.97;3.60;;;21.50;99.90;;;;;;5050165;28;20212;-74
2022/05/19 08:47:31;;;;;;;4.80;3.03;;;21.80;99.90;;;;;;5049956;28;20208;-74
2022/05/19 08:50:02;;;;;;;3.60;3.00;;;21.90;99.90;;;;;;5049885;28;20270;-74
2022/05/19 08:52:37;;;;;;;3.30;3.10;;;21.90;99.90;;;;;;5048992;28;20196;-75
2022/05/19 08:55:04;;;;;;;3.10;2.90;;;21.90;99.90;;;;;;5046439;28;20192;-74
2022/05/19 08:57:36;;;;;;;3.03;2.83;;;21.90;99.90;;;;;;5048978;28;20208;-74
2022/05/19 09:00:09;;;;;;;6.80;3.20;;;22.00;99.90;;;;;;5048950;28;20192;-73
2022/05/19 09:02:40;;;;;;;7.80;3.63;;;22.00;99.90;;;;;;5049367;28;20310;-73
2022/05/19 09:05:15;;;;;;;7.22;3.63;;;22.00;99.90;;;;;;5048625;28;20265;-73
2022/05/19 09:07:58;;;;;;;3.45;3.25;;;22.10;99.90;;;;;;5047860;28;20260;-73
2022/05/19 09:10:40;;;;;;;3.63;3.42;;;22.10;99.90;;;;;;5047697;28;20238;-73
2022/05/19 09:13:12;;;;;;;3.75;3.03;;;22.10;99.90;;;;;;5048686;28;20188;-73
2022/05/19 09:15:40;;;;;;;3.05;2.75;;;22.20;99.90;;;;;;5048255;28;20211;-74
2022/05/19 09:18:08;;;;;;;3.47;2.70;;;22.20;99.90;;;;;;5048415;28;20262;-74
2022/05/19 09:20:41;;;;;;;5.82;3.40;;;22.30;99.90;;;;;;5047912;28;20196;-74
2022/05/19 09:23:07;;;;;;;2.80;2.60;;;22.40;99.90;;;;;;5045335;28;20714;-73
2022/05/19 09:25:40;;;;;;;3.08;2.88;;;22.40;99.90;;;;;;5047754;28;20200;-73
2022/05/19 09:28:09;;;;;;;2.83;2.63;;;22.50;99.90;;;;;;5045558;28;20265;-74
2022/05/19 09:30:38;;;;;;;4.28;3.00;;;22.60;99.90;;;;;;5047730;28;20208;-74
2022/05/19 09:33:16;;;;;;;3.28;3.08;;;22.60;99.90;;;;;;5047281;28;20303;-74
2022/05/19 09:35:48;;;;;;;3.53;3.08;;;22.70;99.90;;;;;;5047630;28;20200;-73
2022/05/19 09:38:26;;;;;;;4.00;3.20;;;22.80;99.90;;;;;;5047629;28;20218;-73
2022/05/19 09:41:00;;;;;;;3.53;3.28;;;22.80;99.90;;;;;;5045607;28;20188;-73
2022/05/19 09:43:30;;;;;;;3.28;3.05;;;22.80;99.90;;;;;;5047547;28;20216;-73
2022/05/19 09:46:05;;;;;;;3.17;2.90;;;22.90;99.90;;;;;;5047394;28;20202;-74
2022/05/19 09:48:41;;;;;;;2.72;2.53;;;22.90;99.90;;;;;;5045190;28;20227;-73
2022/05/19 09:51:11;;;;;;;3.65;2.88;;;22.90;99.90;;;;;;5047339;28;20192;-73
2022/05/19 09:53:40;;;;;;;3.15;2.95;;;23.00;99.90;;;;;;5047488;28;20210;-73
2022/05/19 09:56:11;;;;;;;4.35;3.00;;;23.10;99.90;;;;;;5046881;28;20201;-73
2022/05/19 09:58:42;;;;;;;3.28;2.95;;;23.10;99.90;;;;;;5046955;28;20769;-73
2022/05/19 10:01:17;;;;;;;5.13;3.30;;;23.20;99.90;;;;;;5044696;28;20189;-73
2022/05/19 10:03:51;;;;;;;3.70;3.33;;;23.20;99.90;;;;;;5046977;28;20224;-73
2022/05/19 10:06:21;;;;;;;3.75;3.45;;;23.30;99.90;;;;;;5046790;28;20224;-73
2022/05/19 10:08:49;;;;;;;3.35;2.85;;;23.40;99.90;;;;;;5044490;28;20189;-73
2022/05/19 10:11:24;;;;;;;3.72;3.42;;;23.50;99.80;;;;;;5046475;28;20756;-73
2022/05/19 10:13:55;;;;;;;4.25;3.33;;;23.60;99.90;;;;;;5044919;28;20192;-73
2022/05/19 10:16:31;;;;;;;3.60;3.30;;;23.80;99.30;;;;;;5046714;28;20197;-73
2022/05/19 10:19:14;;;;;;;3.05;2.78;;;24.00;98.70;;;;;;5045557;28;20184;-73
2022/05/19 10:22:01;;;;;;;3.47;3.17;;;24.00;99.20;;;;;;5045825;28;20196;-73
2022/05/19 10:24:45;;;;;;;3.17;2.97;;;24.10;99.40;;;;;;5044836;28;20208;-73
2022/05/19 10:33:22;;;;;;;3.10;2.80;;;24.30;99.30;;;;;;4974917;28;20216;-73
2022/05/19 10:36:06;;;;;;;2.90;2.70;;;24.40;99.50;;;;;;4969103;28;20194;-73
2022/05/19 10:38:44;;;;;;;4.72;2.90;;;24.40;99.40;;;;;;5014531;28;20203;-72
2022/05/19 10:41:21;;;;;;;3.90;2.55;;;24.50;99.10;;;;;;5047304;28;20225;-74
2022/05/19 10:44:05;;;;;;;4.30;3.22;;;24.60;99.30;;;;;;5046678;28;20223;-73
2022/05/19 10:46:44;;;;;;;3.25;3.00;;;24.70;98.90;;;;;;5046241;28;20242;-73
2022/05/19 10:49:34;;;;;;;3.45;3.13;;;24.70;99.00;;;;;;5046463;28;20618;-73
2022/05/19 10:52:14;;;;;;;3.13;2.92;;;24.80;99.40;;;;;;5045601;28;20271;-73
2022/05/19 10:54:53;;;;;;;5.05;3.50;;;24.80;98.70;;;;;;5046374;28;20196;-73
2022/05/19 10:58:01;;;;;;;6.90;2.95;;;25.00;98.20;;;;;;5045124;28;20196;-73
2022/05/19 11:00:38;;;;;;;3.35;2.88;;;25.10;98.00;;;;;;5043215;28;20208;-73
2022/05/19 11:03:31;;;;;;;6.20;3.05;;;25.30;97.90;;;;;;5046085;28;20327;-74
2022/05/19 11:06:09;;;;;;;3.28;2.97;;;25.40;98.60;;;;;;5044723;28;20231;-74
2022/05/19 11:08:51;;;;;;;3.72;2.88;;;25.50;98.60;;;;;;5044438;28;20185;-74
2022/05/19 11:11:24;;;;;;;3.65;3.08;;;25.60;98.90;;;;;;5044072;28;20243;-74
2022/05/19 11:14:07;;;;;;;5.45;3.20;;;25.60;98.40;;;;;;5043856;28;20197;-74
2022/05/19 11:16:42;;;;;;;2.70;2.50;;;25.80;97.60;;;;;;5045702;28;20671;-74
2022/05/19 11:19:17;;;;;;;3.10;2.90;;;25.90;97.50;;;;;;5041037;28;20701;-74
2022/05/19 11:21:49;;;;;;;4.00;2.88;;;26.00;97.40;;;;;;5045784;28;20220;-73
2022/05/19 11:24:22;;;;;;;2.75;2.60;;;26.00;97.10;;;;;;5043776;28;20479;-74
2022/05/19 11:26:57;;;;;;;3.40;3.03;;;26.00;97.80;;;;;;5043235;28;20283;-74
2022/05/19 11:29:31;;;;;;;3.25;3.05;;;26.00;97.90;;;;;;5045988;28;20201;-74
2022/05/19 11:32:04;;;;;;;3.17;2.90;;;26.00;97.90;;;;;;5049762;28;20191;-74
2022/05/19 11:34:36;;;;;;;4.05;3.22;;;26.00;97.40;;;;;;5047634;28;20808;-74
2022/05/19 11:37:14;;;;;;;2.70;2.60;;;26.00;97.70;;;;;;5050328;28;20302;-74
2022/05/19 11:39:57;;;;;;;8.18;3.35;;;26.10;97.80;;;;;;5050892;28;20208;-74
2022/05/19 11:42:35;;;;;;;3.35;3.05;;;26.00;98.30;;;;;;5050866;28;20220;-73
2022/05/19 11:45:04;;;;;;;3.53;3.08;;;26.20;94.70;;;;;;5050600;28;20188;-74
2022/05/19 11:56:04;;;;;;;3.28;2.80;;;26.80;94.90;;;;;;5035708;28;20203;-74
2022/05/19 11:58:35;;;;;;;2.80;2.70;;;26.90;95.40;;;;;;5050447;28;20223;-74
2022/05/19 12:01:09;;;;;;;5.93;2.88;;;27.00;94.30;;;;;;5050318;28;20196;-74
2022/05/19 12:03:42;;;;;;;5.05;2.72;;;27.10;93.80;;;;;;5050468;28;20273;-74
2022/05/19 12:06:18;;;;;;;3.55;2.75;;;27.10;93.90;;;;;;5050475;28;20242;-74
2022/05/19 12:08:55;;;;;;;2.92;2.72;;;27.20;94.50;;;;;;5050558;28;20245;-74
2022/05/19 12:11:27;;;;;;;2.95;2.55;;;27.30;95.20;;;;;;5049663;28;20717;-74
2022/05/19 12:14:08;;;;;;;2.90;2.70;;;27.50;95.40;;;;;;5050359;28;20196;-74
2022/05/19 12:16:45;;;;;;;3.13;2.92;;;27.60;95.70;;;;;;5050348;28;20283;-74
2022/05/19 12:19:32;;;;;;;3.40;2.40;;;27.60;94.90;;;;;;5050622;28;20207;-75
2022/05/19 12:21:58;;;;;;;3.05;2.40;;;27.60;94.10;;;;;;5047732;28;20200;-75
2022/05/19 12:24:30;;;;;;;5.00;2.60;;;27.70;94.00;;;;;;5044037;28;20267;-75
2022/05/19 12:27:01;;;;;;;11.70;3.05;;;27.80;94.30;;;;;;5050062;28;20262;-75
2022/05/19 12:29:41;;;;;;;7.18;3.03;;;27.90;94.10;;;;;;5050126;28;20192;-75
2022/05/19 12:32:11;;;;;;;3.05;2.53;;;27.90;93.10;;;;;;5050355;28;20203;-75
2022/05/19 12:34:45;;;;;;;6.53;2.95;;;28.00;93.00;;;;;;5050032;28;20265;-75
2022/05/19 12:37:38;;;;;;;2.95;2.63;;;28.10;91.90;;;;;;5049503;28;20223;-75
2022/05/19 12:40:38;;;;;;;8.88;3.20;;;28.10;93.60;;;;;;5049874;28;20208;-75
2022/05/19 12:43:37;;;;;;;9.63;3.42;;;28.20;93.90;;;;;;5043282;28;20256;-75
2022/05/19 12:46:10;;;;;;;4.78;2.90;;;28.30;94.10;;;;;;5050048;28;20215;-75
2022/05/19 12:48:50;;;;;;;4.65;2.85;;;28.40;93.60;;;;;;5049882;28;20208;-75
2022/05/19 12:51:27;;;;;;;3.10;2.80;;;28.40;93.30;;;;;;5049005;28;20207;-75
2022/05/19 12:54:04;;;;;;;2.95;2.55;;;28.40;92.70;;;;;;5047683;28;20200;-75
2022/05/19 12:56:52;;;;;;;2.60;2.40;;;28.50;93.00;;;;;;5048518;28;20282;-74
2022/05/19 12:59:39;;;;;;;3.40;2.53;;;28.60;93.10;;;;;;5046311;28;20662;-74
2022/05/19 13:02:10;;;;;;;2.63;2.30;;;28.60;91.60;;;;;;5048581;28;20275;-75
2022/05/19 13:04:43;;;;;;;3.45;2.95;;;28.70;91.30;;;;;;5048835;28;20266;-74
2022/05/19 13:07:15;;;;;;;5.93;2.42;;;28.70;91.60;;;;;;5049546;28;20238;-74
2022/05/19 13:09:51;;;;;;;4.43;2.53;;;28.80;91.70;;;;;;5049154;28;20239;-74
2022/05/19 13:12:22;;;;;;;7.75;2.83;;;28.80;91.80;;;;;;5049442;28;20253;-75
2022/05/19 13:14:56;;;;;;;5.25;2.20;;;28.80;92.10;;;;;;5049170;28;20658;-75
2022/05/19 13:17:33;;;;;;;2.75;2.55;;;28.90;92.10;;;;;;5049415;28;20208;-74
2022/05/19 13:20:01;;;;;;;27.42;4.90;;;28.90;92.30;;;;;;5048866;28;20208;-74
2022/05/19 13:22:32;;;;;;;4.70;2.38;;;29.00;92.30;;;;;;5048901;28;20204;-74
2022/05/19 13:25:05;;;;;;;3.17;2.35;;;29.20;91.20;;;;;;5048887;28;20209;-75
2022/05/19 13:30:27;;;;;;;2.75;2.50;;;29.30;88.60;;;;;;5048908;28;20585;-74
2022/05/19 13:33:05;;;;;;;5.85;2.65;;;29.40;87.00;;;;;;5048005;28;20207;-74